Flight Track Log - Related Links

Times and Time Zones

All times are in EDT time to prevent confusion due to time zone crossing. See the AAL1357 flight status page for this flight to view local times or setup timezone preferences in your user account.

Time Position Orientation Groundspeed Altitude Reporting Facility
EDT Latitude Longitude Course Direction KTS MPH feet Rate Location/Type
Mon 09:35:03 AM 40.6692 -73.7014 161° South 219 252 2,900  Level New York Center
Mon 09:36:04 AM 40.6756 -73.6086 85° East 237 273 5,600 2,622 Climbing New York Center
Mon 09:37:02 AM 40.6694 -73.5100 95° East 252 290 8,100 2,542 Climbing New York Center
Mon 09:38:02 AM 40.5908 -73.4931 171° South 211 243 10,600 1,916 Climbing New York Center
Mon 09:39:01 AM 40.5014 -73.4786 173° South 292 336 11,900 1,050 Climbing New York Center
Mon 09:40:00 AM 40.0070 -73.4942 161° South  Level Estimated
Mon 09:40:02 AM 40.4328 -73.3914 136° Southeast 329 379 12,700  Level New York Center
Mon 09:41:03 AM 40.3658 -73.2989 134° Southeast 344 396 14,600 2,164 Climbing New York Center
Mon 09:42:04 AM 40.3014 -73.1986 130° Southeast 355 409 17,100 1,916 Climbing New York Center
Mon 09:43:02 AM 40.2408 -73.1014 129° Southeast 368 423 18,400 1,613 Climbing New York Center
Mon 09:44:03 AM 40.1742 -72.9903 128° Southeast 380 437 20,300 1,983 Climbing New York Center
Mon 09:45:03 AM 40.0994 -72.8606 127° Southeast 399 459 22,400 1,881 Climbing New York Center
Mon 09:46:01 AM 40.0308 -72.7444 128° Southeast 404 465 24,000 1,475 Climbing New York Center
Mon 09:47:01 AM 39.9533 -72.6286 131° Southeast 404 465 25,300 1,339 Climbing New York Center
Mon 09:48:02 AM 39.8414 -72.5958 167° South 394 453 26,700 1,279 Climbing New York Center
Mon 09:49:03 AM 39.7206 -72.5872 177° South 409 471 27,900 1,279 Climbing New York Center
Mon 09:50:04 AM 39.6000 -72.5786 177° South 424 488 29,300 1,220 Climbing New York Center
Mon 09:51:01 AM 39.4750 -72.5700 177° South 444 511 30,300 1,068 Climbing New York Center
Mon 09:52:02 AM 39.3500 -72.5614 177° South 449 517 31,400 984 Climbing New York Center
Mon 09:53:03 AM 39.2228 -72.5556 178° South 455 524 32,300 1,140 Climbing New York Center
Mon 09:54:03 AM 39.0958 -72.5442 176° South 460 529 33,700 1,361 Climbing New York Center
Mon 09:55:02 AM 38.9708 -72.5358 177° South 460 529 35,000 1,500 Climbing New York Center
Mon 09:56:03 AM 38.8458 -72.5247 176° South 460 529 36,700 1,008 Climbing New York Center
Mon 09:57:01 AM 38.7208 -72.5189 178° South 455 524 37,000 151 Climbing New York Center
Mon 09:58:02 AM 38.5981 -72.5131 178° South 455 524 37,000  Level New York Center
Mon 09:59:03 AM 38.4753 -72.4994 175° South 455 524 37,000  Level New York Center
Mon 10:00:04 AM 38.3500 -72.5017 181° South 455 524 37,000  Level New York Center
Mon 10:01:01 AM 38.2250 -72.4856 174° South 455 524 37,000  Level New York Center
Mon 10:02:02 AM 38.0981 -72.4772 177° South 455 524 37,000  Level New York Center
Mon 10:03:02 AM 37.9750 -72.4692 177° South 455 524 37,000  Level New York Center
Mon 10:04:03 AM 37.8500 -72.4608 177° South 455 524 37,000  Level New York Center
Mon 10:05:01 AM 37.7272 -72.4500 176° South 455 524 37,000  Level New York Center
Mon 10:06:02 AM 37.6122 -72.4528 181° South 446 513 37,000  Level New York Center
Mon 10:07:02 AM 37.4894 -72.4447 177° South 439 505 37,000  Level New York Center
Mon 10:08:03 AM 37.3581 -72.4339 176° South 451 519 37,000  Level New York Center
Mon 10:09:03 AM 37.2414 -72.4286 178° South 451 519 37,000  Level New York Center
Mon 10:10:03 AM 37.1122 -72.4206 177° South 456 525 37,000  Level New York Center
Mon 10:11:01 AM 36.9933 -72.4100 176° South 456 525 37,000  Level New York Center
Mon 10:12:01 AM 36.8619 -72.4019 177° South 456 525 37,000  Level New York Center
Mon 10:13:03 AM 36.7350 -72.3964 178° South 462 532 37,000  Level New York Center
Mon 10:14:03 AM 36.6075 -72.3964 180° South 455 524 37,000  Level New York Center
Mon 10:15:01 AM 36.4844 -72.3989 181° South 455 524 37,000  Level New York Center
Mon 10:16:03 AM 36.3572 -72.3986 180° South 455 524 37,000  Level New York Center
Mon 10:17:04 AM 36.2319 -72.4011 181° South 461 531 37,000  Level New York Center
Mon 10:18:01 AM 36.0983 -72.4033 181° South 462 532 37,000  Level New York Center
Mon 10:19:02 AM 35.9733 -72.4031 180° South 468 539 37,000  Level New York Center
Mon 10:20:02 AM 35.8419 -72.4056 181° South 462 532 37,000  Level New York Center
Mon 10:21:03 AM 35.7186 -72.4053 180° South 457 526 37,000  Level New York Center
Mon 10:22:03 AM 35.5872 -72.4078 181° South 462 532 37,000  Level New York Center
Mon 10:23:01 AM 35.4642 -72.4075 180° South 457 526 37,000 350 Level New York Center
Mon 10:24:03 AM 35.3369 -72.4100 181° South 457 526 37,700 689 Climbing New York Center
Mon 10:25:03 AM 35.2097 -72.4122 181° South 457 526 38,400 650 Climbing New York Center
Mon 10:26:03 AM 35.0825 -72.4122 180° South 451 519 39,000 300 Climbing New York Center
Mon 10:27:03 AM 34.9575 -72.3994 175° South 461 531 39,000  Level New York Center
Mon 10:28:01 AM 34.8261 -72.3889 176° South 461 531 39,000  Level New York Center
Mon 10:30:58 AM 35.0500 -72.4167 175° South 453 521 39,000  Level New York Oceanic (ODAPS)
Mon 10:47:13 AM 33.9833 -72.3000 167° South 453 521 39,000  Level New York Oceanic (ODAPS)
Mon 11:23:44 AM 28.9000 -70.9833 168° South 453 521 39,000  Level New York Oceanic (ODAPS)
Mon 11:43:06 AM 25.4525 -70.1600 176° South 448 516 39,000  Level Miami Center
Mon 11:44:00 AM 25.2602 -70.1103 168° South 453 521 39,000  Level FlightAware Transoceanic
Mon 11:44:06 AM 25.3303 -70.1344 169° South 448 516 39,000  Level Miami Center
Mon 11:45:00 AM 25.1301 -70.0801 168° South 453 521 39,000  Level FlightAware Transoceanic
Mon 11:45:06 AM 25.2100 -70.1067 168° South 448 516 39,000  Level Miami Center
Mon 11:46:00 AM 25.0000 -70.0500 176° South 453 521 39,000  Level FlightAware Transoceanic
Mon 11:46:06 AM 25.0875 -70.0744 167° South 448 516 39,000  Level Miami Center
Mon 11:47:00 AM 24.8750 -70.0415 176° South 453 521 39,000  Level FlightAware Transoceanic
Mon 11:47:06 AM 24.9719 -70.0581 173° South 441 507 39,000  Level Miami Center
Mon 11:48:00 AM 24.7500 -70.0331 176° South 453 521 39,000  Level FlightAware Transoceanic
Mon 11:48:06 AM 24.8631 -70.0939 197° South 420 483 39,000  Level Miami Center
Mon 11:49:06 AM 24.7769 -70.1694 219° Southwest 392 451 39,000  Level Miami Center
Mon 11:50:06 AM 24.6931 -70.2539 222° Southwest 387 445 39,000  Level Miami Center
Mon 11:51:06 AM 24.6172 -70.3356 224° Southwest 396 456 39,000 -550 Level Miami Center
Mon 11:52:06 AM 24.5442 -70.4261 228° Southwest 390 449 37,900 -1,750 Descending Miami Center
Mon 11:53:06 AM 24.4661 -70.5078 224° Southwest 396 456 35,500 -2,350 Descending Miami Center
Mon 11:54:06 AM 24.3864 -70.5961 225° Southwest 396 456 33,200 -1,250 Descending Miami Center
Mon 11:55:06 AM 24.3083 -70.6753 223° Southwest 396 456 33,000 -100 Descending Miami Center
Mon 11:56:06 AM 24.2286 -70.7656 226° Southwest 396 456 33,000  Level Miami Center
Mon 11:57:06 AM 24.1486 -70.8492 224° Southwest 401 461 33,000  Level Miami Center
Mon 11:58:06 AM 24.0689 -70.9461 228° Southwest 407 468 33,000  Level Miami Center
Mon 11:59:06 AM 23.9869 -71.0386 226° Southwest 413 475 33,000  Level Miami Center
Mon 12:00:06 PM 23.9069 -71.1217 224° Southwest 418 481 33,000  Level Miami Center
Mon 12:01:06 PM 23.8244 -71.2072 223° Southwest 418 481 33,000  Level Miami Center
Mon 12:02:06 PM 23.7444 -71.2992 226° Southwest 423 487 33,000  Level Miami Center
Mon 12:03:06 PM 23.6622 -71.3911 226° Southwest 423 487 33,000  Level Miami Center
Mon 12:04:06 PM 23.5797 -71.4764 223° Southwest 423 487 33,000  Level Miami Center
Mon 12:05:06 PM 23.4803 -71.5575 217° Southwest 429 494 33,000  Level Miami Center
Mon 12:06:06 PM 23.3869 -71.6314 216° Southwest 434 499 33,000  Level Miami Center
Mon 12:07:06 PM 23.2869 -71.6942 210° Southwest 429 494 33,000  Level Miami Center
Mon 12:08:06 PM 23.1736 -71.7439 202° Southwest 429 494 33,000  Level Miami Center
Mon 12:09:06 PM 23.0603 -71.7822 197° South 434 499 33,000  Level Miami Center
Mon 12:10:06 PM 22.9328 -71.7828 180° South 439 505 33,000  Level Miami Center
Mon 12:11:06 PM 22.8072 -71.7719 175° South 445 512 33,000  Level Miami Center
Mon 12:12:06 PM 22.6811 -71.7478 170° South 445 512 33,000  Level Miami Center
Mon 12:13:06 PM 22.5803 -71.6639 142° Southeast 440 506 33,000  Level Miami Center
Mon 12:14:06 PM 22.4889 -71.5575 133° Southeast 449 517 33,000  Level Miami Center
Mon 12:15:06 PM 22.4039 -71.4511 131° Southeast 458 527 33,000  Level Miami Center
Mon 12:16:06 PM 22.3164 -71.3403 130° Southeast 476 548 33,000  Level Miami Center
Mon 12:17:06 PM 22.2203 -71.2233 132° Southeast 476 548 33,000  Level Miami Center
Mon 12:18:06 PM 22.1325 -71.1128 131° Southeast 476 548 33,000  Level Miami Center
Mon 12:19:06 PM 22.0450 -71.0047 131° Southeast 481 554 33,000  Level Miami Center
Mon 12:20:06 PM 21.9617 -70.8967 130° Southeast 481 554 33,000  Level Miami Center
Mon 12:21:06 PM 21.8739 -70.7889 131° Southeast 476 548 33,000  Level Miami Center
Mon 12:22:06 PM 21.7903 -70.6833 130° Southeast 470 541 33,000  Level Miami Center
Mon 12:23:06 PM 21.7028 -70.5803 132° Southeast 470 541 33,000  Level Miami Center
Mon 12:24:06 PM 21.6214 -70.4769 130° Southeast 465 535 33,000  Level Miami Center
Mon 12:25:06 PM 21.5356 -70.3719 131° Southeast 465 535 33,000  Level Miami Center
Mon 12:26:06 PM 21.4519 -70.2692 131° Southeast 465 535 33,000  Level Miami Center
Mon 12:27:06 PM 21.3725 -70.1661 130° Southeast 465 535 33,000  Level Miami Center
Mon 12:28:06 PM 21.2847 -70.0639 133° Southeast 465 535 33,000  Level Miami Center
Mon 12:29:06 PM 21.2008 -69.9592 131° Southeast 465 535 33,000  Level Miami Center
Mon 12:30:06 PM 21.1147 -69.8569 132° Southeast 465 535 33,000  Level Miami Center
Mon 12:31:06 PM 21.0308 -69.7525 131° Southeast 465 535 33,000  Level Miami Center
Mon 12:32:06 PM 20.9447 -69.6483 132° Southeast 465 535 33,000  Level Miami Center
Mon 12:33:06 PM 20.8564 -69.5422 132° Southeast 470 541 33,000  Level Miami Center
Mon 12:34:06 PM 20.7722 -69.4381 131° Southeast 470 541 33,000  Level Miami Center
Mon 12:35:06 PM 20.6861 -69.3322 131° Southeast 470 541 33,000  Level Miami Center
Mon 12:36:06 PM 20.5975 -69.2264 132° Southeast 470 541 33,000  Level Miami Center
Mon 12:37:06 PM 20.5200 -69.1336 132° Southeast 470 541 33,000  Level Miami Center
Mon 12:38:06 PM 20.4356 -69.0278 130° Southeast 470 541 33,000  Level Miami Center
Mon 12:39:06 PM 20.3492 -68.9247 132° Southeast 470 541 33,000  Level Miami Center
Mon 12:40:06 PM 20.2667 -68.8169 129° Southeast 470 541 33,000  Level Miami Center
Mon 12:41:06 PM 20.1742 -68.7164 134° Southeast 470 541 33,000  Level Miami Center
Mon 12:42:06 PM 20.0853 -68.6136 133° Southeast 470 541 33,000  Level Miami Center
Mon 12:43:06 PM 20.0028 -68.5086 130° Southeast 470 541 33,000  Level Miami Center
Mon 12:44:06 PM 19.9142 -68.4061 133° Southeast 470 541 33,000  Level Miami Center
Mon 12:44:50 PM 19.8333 -68.3167 134° Southeast 460 529 33,000  Level San Juan Center
Mon 12:45:50 PM 19.7500 -68.2167 132° Southeast 460 529 33,000  Level San Juan Center
Mon 12:46:50 PM 19.6667 -68.1167 131° Southeast 470 541 33,000  Level San Juan Center
Mon 12:47:51 PM 19.5833 -68.0167 131° Southeast 480 552 33,000 -198 Level San Juan Center
Mon 12:48:51 PM 19.5000 -67.9167 131° Southeast 470 541 32,600 -700 Descending San Juan Center
Mon 12:49:51 PM 19.4167 -67.8167 131° Southeast 470 541 31,600 -1,438 Descending San Juan Center
Mon 12:50:52 PM 19.3167 -67.7167 137° Southeast 450 518 29,700 -1,736 Descending San Juan Center
Mon 12:51:52 PM 19.2500 -67.6000 121° Southeast 450 518 28,100 -1,550 Descending San Juan Center
Mon 12:52:52 PM 19.1833 -67.5000 125° Southeast 450 518 26,600 -1,650 Descending San Juan Center
Mon 12:53:52 PM 19.1333 -67.3833 114° Southeast 420 483 24,800 -1,736 Descending San Juan Center
Mon 12:54:53 PM 19.0833 -67.2833 118° Southeast 410 472 23,100 -1,636 Descending San Juan Center
Mon 12:55:53 PM 19.0333 -67.1667 114° Southeast 400 460 21,500 -1,650 Descending San Juan Center
Mon 12:56:53 PM 18.9833 -67.0667 118° Southeast 380 437 19,800 -1,800 Descending San Juan Center
Mon 12:57:53 PM 18.9167 -66.9667 125° Southeast 380 437 17,900 -1,835 Descending San Juan Center
Mon 12:58:54 PM 18.8667 -66.8667 118° Southeast 370 426 16,100 -1,835 Descending San Juan Center
Mon 12:59:54 PM 18.8333 -66.7667 109° East 360 414 14,200 -1,950 Descending San Juan Center
Mon 01:00:54 PM 18.7833 -66.6667 118° Southeast 350 403 12,200 -1,835 Descending San Juan Center
Mon 01:01:55 PM 18.7333 -66.5833 122° Southeast 340 391 10,500 -1,339 Descending San Juan Center
Mon 01:02:55 PM 18.7000 -66.5000 113° Southeast 310 357 9,500 -1,091 Descending San Juan Center
Mon 01:03:56 PM 18.6500 -66.4167 122° Southeast 290 334 8,300 -1,289 Descending San Juan Center
Mon 01:04:56 PM 18.6000 -66.3500 128° Southeast 280 322 6,900 -1,150 Descending San Juan Center
Mon 01:05:56 PM 18.5500 -66.3000 137° Southeast 270 311 6,000 -694 Descending San Juan Center
Mon 01:06:57 PM 18.5000 -66.2667 148° Southeast 240 276 5,500 -645 Descending San Juan Center
Mon 01:07:57 PM 18.4500 -66.2167 137° Southeast 200 230 4,700 -800 Descending San Juan Center
Mon 01:08:57 PM 18.4333 -66.1833 118° Southeast 180 207 3,900 -843 Descending San Juan Center
Mon 01:09:58 PM 18.4333 -66.1333 90° East 150 173 3,000 -1,061 Descending San Juan Center
Mon 01:11:58 PM 18.4333 -66.0500 109° East 140 161 700 -1,150 Descending San Juan Center

Login

Don't have an account? Register now (free) for customized features, flight alerts, and more!